createdAt,value
2023-02-21T00:00:35.290Z,2.80
2023-02-21T00:03:44.391Z,2.50
2023-02-21T00:06:34.059Z,3.00
2023-02-21T00:09:23.949Z,2.80
2023-02-21T00:12:13.246Z,3.00
2023-02-21T00:15:02.647Z,2.80
2023-02-21T00:17:51.899Z,2.60
2023-02-21T00:20:41.104Z,2.90
2023-02-21T00:23:31.520Z,2.90
2023-02-21T00:26:21.552Z,2.80
2023-02-21T00:29:11.280Z,2.70
2023-02-21T00:32:01.624Z,3.20
2023-02-21T00:34:50.874Z,2.80
2023-02-21T00:37:40.400Z,2.70
2023-02-21T00:40:32.512Z,2.90
2023-02-21T00:43:21.942Z,3.00
2023-02-21T00:46:11.715Z,3.40
2023-02-21T00:49:01.321Z,3.10
2023-02-21T00:51:50.831Z,3.50
2023-02-21T00:54:40.557Z,3.50
2023-02-21T00:57:30.557Z,3.10
2023-02-21T01:00:20.123Z,2.80
2023-02-21T01:03:09.594Z,2.80
2023-02-21T01:05:59.422Z,2.10
2023-02-21T01:08:49.389Z,2.00
2023-02-21T01:11:41.138Z,2.10
2023-02-21T01:14:30.877Z,1.70
2023-02-21T01:17:22.727Z,2.30
2023-02-21T01:20:11.874Z,2.00
2023-02-21T01:23:01.144Z,2.20
2023-02-21T01:25:51.138Z,1.80
2023-02-21T01:28:40.386Z,1.80
2023-02-21T01:31:29.672Z,2.20
2023-02-21T01:34:19.330Z,1.90
2023-02-21T01:37:10.295Z,1.80
2023-02-21T01:39:59.435Z,1.70
2023-02-21T01:42:49.479Z,1.80
2023-02-21T01:46:01.989Z,1.50
2023-02-21T01:48:53.978Z,1.60
2023-02-21T01:51:49.982Z,1.20
2023-02-21T01:54:41.570Z,1.20
2023-02-21T01:57:32.048Z,0.80
2023-02-21T02:00:27.446Z,1.20
2023-02-21T02:03:19.838Z,0.80
2023-02-21T02:06:13.348Z,0.90
2023-02-21T02:12:17.725Z,1.30
2023-02-21T02:15:06.599Z,1.50
2023-02-21T02:17:54.514Z,1.30
2023-02-21T02:20:49.344Z,1.40
2023-02-21T02:24:12.490Z,1.30
2023-02-21T02:27:32.281Z,1.50
2023-02-21T02:30:23.396Z,1.70
2023-02-21T02:33:15.309Z,1.70
2023-02-21T02:35:51.160Z,1.20
2023-02-21T02:38:33.025Z,1.20
2023-02-21T02:41:13.056Z,1.80
2023-02-21T02:43:55.538Z,1.20
2023-02-21T02:46:31.875Z,1.90
2023-02-21T02:49:08.068Z,1.60
2023-02-21T02:51:40.179Z,1.30
2023-02-21T02:56:42.849Z,1.40
2023-02-21T02:59:18.854Z,1.30
2023-02-21T03:02:25.761Z,1.10
2023-02-21T03:05:12.148Z,0.90
2023-02-21T03:07:54.765Z,1.00
2023-02-21T03:10:37.291Z,0.90
2023-02-21T03:13:19.049Z,0.80
2023-02-21T03:15:53.878Z,0.90
2023-02-21T03:18:31.757Z,1.00
2023-02-21T03:21:07.266Z,1.20
2023-02-21T03:23:41.285Z,1.40
2023-02-21T03:26:15.518Z,1.00
2023-02-21T03:28:51.116Z,0.90
2023-02-21T03:31:31.183Z,1.20
2023-02-21T03:34:03.319Z,0.60
2023-02-21T03:36:35.701Z,0.50
2023-02-21T03:39:08.046Z,0.80
2023-02-21T03:41:39.941Z,0.50
2023-02-21T03:44:11.841Z,0.40
2023-02-21T03:46:43.826Z,0.50
2023-02-21T03:49:15.894Z,0.50
2023-02-21T03:51:47.686Z,0.70
2023-02-21T03:54:19.478Z,0.50
2023-02-21T03:56:53.631Z,0.50
2023-02-21T03:59:29.024Z,0.60
2023-02-21T04:02:01.379Z,0.40
2023-02-21T04:04:35.511Z,1.20
2023-02-21T04:07:21.299Z,0.40
2023-02-21T04:09:53.975Z,0.50
2023-02-21T04:12:34.311Z,0.70
2023-02-21T04:15:06.597Z,0.60
2023-02-21T04:17:39.788Z,0.70
2023-02-21T04:20:15.189Z,0.40
2023-02-21T04:23:02.878Z,0.60
2023-02-21T04:25:35.983Z,0.50
2023-02-21T04:28:13.001Z,0.60
2023-02-21T04:30:44.826Z,0.60
2023-02-21T04:33:16.988Z,0.60
2023-02-21T04:35:51.094Z,0.60
2023-02-21T04:38:46.396Z,1.20
2023-02-21T04:41:18.852Z,0.80
2023-02-21T04:43:50.649Z,0.80
2023-02-21T04:46:23.013Z,0.90
2023-02-21T04:48:55.333Z,0.40
2023-02-21T04:51:28.441Z,0.60
2023-02-21T04:54:01.044Z,0.60
2023-02-21T04:56:32.831Z,0.70
2023-02-21T04:59:04.761Z,1.70
2023-02-21T05:01:36.695Z,1.00
2023-02-21T05:04:08.752Z,1.10
2023-02-21T05:06:40.872Z,0.80
2023-02-21T05:09:12.743Z,0.80
2023-02-21T05:11:44.477Z,0.90
2023-02-21T05:14:18.214Z,0.80
2023-02-21T05:16:50.097Z,0.90
2023-02-21T05:19:27.748Z,1.10
2023-02-21T05:22:02.699Z,0.80
2023-02-21T05:24:34.980Z,0.90
2023-02-21T05:27:06.734Z,1.10
2023-02-21T05:29:38.872Z,1.10
2023-02-21T05:32:10.680Z,1.00
2023-02-21T05:34:44.900Z,1.10
2023-02-21T05:37:17.528Z,1.00
2023-02-21T05:39:49.374Z,1.00
2023-02-21T05:42:21.214Z,1.40
2023-02-21T05:44:53.131Z,0.90
2023-02-21T05:47:25.106Z,1.50
2023-02-21T05:49:56.830Z,1.00
2023-02-21T05:52:28.713Z,1.10
2023-02-21T05:55:00.420Z,0.80
2023-02-21T05:57:32.220Z,1.10
2023-02-21T06:00:04.359Z,1.20
2023-02-21T06:02:43.682Z,1.00
2023-02-21T06:05:15.922Z,1.20
2023-02-21T06:07:48.339Z,1.00
2023-02-21T06:10:20.818Z,1.30
2023-02-21T06:12:53.234Z,1.00
2023-02-21T06:15:25.479Z,1.40
2023-02-21T06:17:57.202Z,1.40
2023-02-21T06:20:29.368Z,1.20
2023-02-21T06:23:01.070Z,1.40
2023-02-21T06:25:32.896Z,1.70
2023-02-21T06:28:04.906Z,1.60
2023-02-21T06:30:36.756Z,1.00
2023-02-21T06:33:08.489Z,1.80
2023-02-21T06:35:40.365Z,1.60
2023-02-21T06:38:12.383Z,2.30
2023-02-21T06:40:44.919Z,1.30
2023-02-21T06:43:16.834Z,1.90
2023-02-21T06:45:48.490Z,1.80
2023-02-21T06:48:21.009Z,1.80
2023-02-21T06:50:52.779Z,1.70
2023-02-21T06:53:24.847Z,2.00
2023-02-21T06:55:56.548Z,1.40
2023-02-21T06:58:28.382Z,2.40
2023-02-21T07:01:00.119Z,2.30
2023-02-21T07:03:32.717Z,1.90
2023-02-21T07:06:04.836Z,2.90
2023-02-21T07:08:36.869Z,2.70
2023-02-21T07:11:09.759Z,2.20
2023-02-21T07:13:41.686Z,2.10
2023-02-21T07:16:14.542Z,1.80
2023-02-21T07:18:46.778Z,2.10
2023-02-21T07:21:19.563Z,1.80
2023-02-21T07:26:22.088Z,1.60
2023-02-21T07:28:53.904Z,2.60
2023-02-21T07:31:26.950Z,2.20
2023-02-21T07:33:59.001Z,2.50
2023-02-21T07:36:31.232Z,1.60
2023-02-21T07:39:03.189Z,2.40
2023-02-21T07:41:34.925Z,2.40
2023-02-21T07:44:07.821Z,2.50
2023-02-21T07:46:42.942Z,2.20
2023-02-21T07:49:14.920Z,2.10
2023-02-21T07:51:46.864Z,3.10
2023-02-21T07:54:20.301Z,2.90
2023-02-21T07:56:52.663Z,2.30
2023-02-21T07:59:25.141Z,2.60
2023-02-21T08:01:56.962Z,2.40
2023-02-21T08:04:28.651Z,2.30
2023-02-21T08:07:03.949Z,2.20
2023-02-21T08:09:36.792Z,2.50
2023-02-21T08:12:09.011Z,2.20
2023-02-21T08:14:41.134Z,2.20
2023-02-21T08:17:14.003Z,2.90
2023-02-21T08:22:16.108Z,2.40
2023-02-21T08:24:49.962Z,2.60
2023-02-21T08:27:21.746Z,2.30
2023-02-21T08:29:54.171Z,2.40
2023-02-21T08:32:26.641Z,2.50
2023-02-21T08:34:58.938Z,2.60
2023-02-21T08:37:33.182Z,3.80
2023-02-21T08:40:07.270Z,3.50
2023-02-21T08:42:39.040Z,2.60
2023-02-21T08:45:17.088Z,2.30
2023-02-21T08:47:49.612Z,2.10
2023-02-21T08:50:23.219Z,2.00
2023-02-21T08:52:55.845Z,2.30
2023-02-21T08:57:58.062Z,2.30
2023-02-21T09:00:29.957Z,1.70
2023-02-21T09:03:01.677Z,4.10
2023-02-21T09:05:33.825Z,2.20
2023-02-21T09:08:05.872Z,2.40
2023-02-21T09:10:40.860Z,2.80
2023-02-21T09:13:12.785Z,2.60
2023-02-21T09:15:44.961Z,2.90
2023-02-21T09:20:52.452Z,2.70
2023-02-21T09:23:25.241Z,2.70
2023-02-21T09:28:29.310Z,3.90
2023-02-21T09:31:01.116Z,3.10
2023-02-21T09:33:33.189Z,3.40
2023-02-21T09:36:05.106Z,2.00
2023-02-21T09:38:37.099Z,2.40
2023-02-21T09:41:10.116Z,2.90
2023-02-21T09:43:45.822Z,3.10
2023-02-21T09:46:22.312Z,3.00
2023-02-21T09:48:54.826Z,2.60
2023-02-21T09:51:27.279Z,3.00
2023-02-21T09:54:01.924Z,2.90
2023-02-21T09:56:37.397Z,3.00
2023-02-21T09:59:12.820Z,3.50
2023-02-21T10:02:02.275Z,2.60
2023-02-21T10:04:54.021Z,2.90
2023-02-21T10:07:33.369Z,2.70
2023-02-21T10:10:13.578Z,3.60
2023-02-21T10:12:55.140Z,3.20
2023-02-21T10:15:41.667Z,3.80
2023-02-21T10:18:23.317Z,3.40
2023-02-21T10:20:59.452Z,3.90
2023-02-21T10:23:36.927Z,3.50
2023-02-21T10:26:13.510Z,2.80
2023-02-21T10:28:45.982Z,2.90
2023-02-21T10:31:23.883Z,2.60
2023-02-21T10:33:55.622Z,3.50
2023-02-21T10:36:32.483Z,3.30
2023-02-21T10:39:13.711Z,4.40
2023-02-21T10:41:46.689Z,3.30
2023-02-21T10:44:25.103Z,4.00
2023-02-21T10:47:03.759Z,4.30
2023-02-21T10:49:42.478Z,4.40
2023-02-21T10:52:17.481Z,3.80
2023-02-21T10:55:03.980Z,4.70
2023-02-21T10:57:42.111Z,5.70
2023-02-21T11:00:25.436Z,5.70
2023-02-21T11:03:04.733Z,4.50
2023-02-21T11:05:39.164Z,3.60
2023-02-21T11:08:13.189Z,4.80
2023-02-21T11:10:46.272Z,3.00
2023-02-21T11:13:22.254Z,3.90
2023-02-21T11:16:11.637Z,3.10
2023-02-21T11:18:43.532Z,3.80
2023-02-21T11:21:18.423Z,4.10
2023-02-21T11:23:57.900Z,5.60
2023-02-21T11:26:32.201Z,3.50
2023-02-21T11:29:12.781Z,3.00
2023-02-21T11:31:45.805Z,5.00
2023-02-21T11:34:20.216Z,3.30
2023-02-21T11:36:52.605Z,3.80
2023-02-21T11:39:28.075Z,2.90
2023-02-21T11:42:03.217Z,3.30
2023-02-21T11:44:37.833Z,3.60
2023-02-21T11:47:16.967Z,3.00
2023-02-21T11:49:55.461Z,3.10
2023-02-21T11:52:31.010Z,3.60
2023-02-21T11:55:02.940Z,3.10
2023-02-21T11:57:45.747Z,4.20
2023-02-21T12:00:27.023Z,3.20
2023-02-21T12:03:31.517Z,3.20
2023-02-21T12:06:12.639Z,3.50
2023-02-21T12:08:52.740Z,3.30
2023-02-21T12:11:49.201Z,3.20
2023-02-21T12:14:35.941Z,3.60
2023-02-21T12:17:20.738Z,3.40
2023-02-21T12:20:16.322Z,3.80
2023-02-21T12:23:03.227Z,2.70
2023-02-21T12:25:46.602Z,2.90
2023-02-21T12:28:28.806Z,4.10
2023-02-21T12:31:18.035Z,2.70
2023-02-21T12:33:59.701Z,3.20
2023-02-21T12:36:54.109Z,3.70
2023-02-21T12:39:43.905Z,2.90
2023-02-21T12:42:44.423Z,2.60
2023-02-21T12:45:37.450Z,4.10
2023-02-21T12:48:18.509Z,3.20
2023-02-21T12:50:57.763Z,3.30
2023-02-21T12:53:37.185Z,3.70
2023-02-21T12:56:16.434Z,3.00
2023-02-21T12:58:55.787Z,3.00
2023-02-21T13:01:31.256Z,3.70
2023-02-21T13:04:17.274Z,2.90
2023-02-21T13:06:53.770Z,3.30
2023-02-21T13:09:35.042Z,3.40
2023-02-21T13:12:11.109Z,3.70
2023-02-21T13:14:47.072Z,3.10
2023-02-21T13:17:21.480Z,4.40
2023-02-21T13:20:06.557Z,3.80
2023-02-21T13:23:32.580Z,3.10
2023-02-21T13:26:36.745Z,3.00
2023-02-21T13:29:19.402Z,2.60
2023-02-21T13:31:58.771Z,3.50
2023-02-21T13:34:36.453Z,3.20
2023-02-21T13:37:20.916Z,3.90
2023-02-21T13:39:58.735Z,2.80
2023-02-21T13:42:33.891Z,3.20
2023-02-21T13:45:21.724Z,2.50
2023-02-21T13:48:21.308Z,3.00
2023-02-21T13:50:55.552Z,3.00
2023-02-21T13:53:35.291Z,2.60
2023-02-21T13:56:22.211Z,3.80
2023-02-21T13:58:54.727Z,3.40
2023-02-21T14:01:45.001Z,3.00
2023-02-21T14:05:02.760Z,3.50
2023-02-21T14:07:50.129Z,3.80
2023-02-21T14:10:41.099Z,3.30
2023-02-21T14:13:29.129Z,4.10
2023-02-21T14:16:11.062Z,4.70
2023-02-21T14:18:47.192Z,3.40
2023-02-21T14:21:28.491Z,2.90
2023-02-21T14:24:04.266Z,3.40
2023-02-21T14:26:46.668Z,4.60
2023-02-21T14:29:37.683Z,4.10
2023-02-21T14:32:36.545Z,4.10
2023-02-21T14:35:27.741Z,4.20
2023-02-21T14:38:04.402Z,4.60
2023-02-21T14:40:54.807Z,4.40
2023-02-21T14:43:39.767Z,4.00
2023-02-21T14:46:37.643Z,3.10
2023-02-21T14:49:36.143Z,3.10
2023-02-21T14:52:54.330Z,3.40
2023-02-21T14:55:37.498Z,3.00
2023-02-21T14:58:35.457Z,3.20
2023-02-21T15:01:16.918Z,3.50
2023-02-21T15:03:53.877Z,4.40
2023-02-21T15:06:30.414Z,4.60
2023-02-21T15:09:15.054Z,4.80
2023-02-21T15:11:48.362Z,3.90
2023-02-21T15:14:26.384Z,3.70
2023-02-21T15:17:00.277Z,3.30
2023-02-21T15:19:34.260Z,3.70
2023-02-21T15:22:25.028Z,3.80
2023-02-21T15:25:22.138Z,3.90
2023-02-21T15:28:19.925Z,4.00
2023-02-21T15:31:01.757Z,3.70
2023-02-21T15:33:36.373Z,4.90
2023-02-21T15:36:15.392Z,5.10
2023-02-21T15:38:51.512Z,3.50
2023-02-21T15:41:30.828Z,3.80
2023-02-21T15:44:08.557Z,3.40
2023-02-21T15:46:46.028Z,4.20
2023-02-21T15:49:24.292Z,3.90
2023-02-21T15:51:56.087Z,3.80
2023-02-21T15:54:31.431Z,3.70
2023-02-21T15:57:22.085Z,3.60
2023-02-21T16:00:18.836Z,3.70
2023-02-21T16:02:50.721Z,3.90
2023-02-21T16:05:29.022Z,3.90
2023-02-21T16:08:05.651Z,3.60
2023-02-21T16:10:39.746Z,3.60
2023-02-21T16:13:12.668Z,3.40
2023-02-21T16:15:45.029Z,3.80
2023-02-21T16:18:21.653Z,3.80
2023-02-21T16:21:01.943Z,4.10
2023-02-21T16:23:36.577Z,3.20
2023-02-21T16:26:28.143Z,3.60
2023-02-21T16:29:03.589Z,4.60
2023-02-21T16:31:39.171Z,4.10
2023-02-21T16:34:15.143Z,4.50
2023-02-21T16:36:47.219Z,3.10
2023-02-21T16:39:18.922Z,3.90
2023-02-21T16:41:52.187Z,4.30
2023-02-21T16:44:24.198Z,4.70
2023-02-21T16:46:58.767Z,3.90
2023-02-21T16:49:30.489Z,4.40
2023-02-21T16:52:02.267Z,3.90
2023-02-21T16:54:34.030Z,4.20
2023-02-21T16:57:06.108Z,4.80
2023-02-21T16:59:38.315Z,4.40
2023-02-21T17:02:15.820Z,4.60
2023-02-21T17:04:47.815Z,4.90
2023-02-21T17:07:20.603Z,4.80
2023-02-21T17:12:25.547Z,4.90
2023-02-21T17:14:57.482Z,4.80
2023-02-21T17:17:29.571Z,5.70
2023-02-21T17:20:01.536Z,5.40
2023-02-21T17:22:33.270Z,5.30
2023-02-21T17:25:05.410Z,6.90
2023-02-21T17:27:37.949Z,5.80
2023-02-21T17:30:11.490Z,6.00
2023-02-21T17:32:43.704Z,5.20
2023-02-21T17:37:49.522Z,5.40
2023-02-21T17:40:23.335Z,6.50
2023-02-21T17:42:55.627Z,5.60
2023-02-21T17:45:27.793Z,5.60
2023-02-21T17:47:59.696Z,6.10
2023-02-21T17:50:32.022Z,7.70
2023-02-21T17:53:03.676Z,5.90
2023-02-21T17:55:35.338Z,6.30
2023-02-21T17:58:07.395Z,3.30
2023-02-21T18:00:39.370Z,6.00
2023-02-21T18:03:11.321Z,5.80
2023-02-21T18:05:43.135Z,5.50
2023-02-21T18:08:15.401Z,6.00
2023-02-21T18:10:47.773Z,5.80
2023-02-21T18:13:23.690Z,4.80
2023-02-21T18:15:55.722Z,5.60
2023-02-21T18:18:28.151Z,4.70
2023-02-21T18:21:02.566Z,6.60
2023-02-21T18:23:35.607Z,5.50
2023-02-21T18:26:07.975Z,5.00
2023-02-21T18:28:39.708Z,5.20
2023-02-21T18:31:11.511Z,5.80
2023-02-21T18:33:43.203Z,4.40
2023-02-21T18:36:15.102Z,5.20
2023-02-21T18:38:46.953Z,4.20
2023-02-21T18:41:22.638Z,5.30
2023-02-21T18:43:54.674Z,5.30
2023-02-21T18:46:26.885Z,6.70
2023-02-21T18:48:58.930Z,4.90
2023-02-21T18:51:30.672Z,7.20
2023-02-21T18:54:02.706Z,6.50
2023-02-21T18:56:34.463Z,7.20
2023-02-21T18:59:06.243Z,6.30
2023-02-21T19:01:37.992Z,7.30
2023-02-21T19:04:09.855Z,5.30
2023-02-21T19:06:41.603Z,6.30
2023-02-21T19:09:14.346Z,5.40
2023-02-21T19:14:16.596Z,6.80
2023-02-21T19:16:49.107Z,6.00
2023-02-21T19:19:21.359Z,7.40
2023-02-21T19:21:53.179Z,7.10
2023-02-21T19:24:25.192Z,7.40
2023-02-21T19:26:57.048Z,6.50
2023-02-21T19:29:28.969Z,7.50
2023-02-21T19:32:01.080Z,5.60
2023-02-21T19:34:33.154Z,6.00
2023-02-21T19:37:04.998Z,4.40
2023-02-21T19:39:37.392Z,6.20
2023-02-21T19:42:10.899Z,5.10
2023-02-21T19:44:42.966Z,6.40
2023-02-21T19:47:15.402Z,5.60
2023-02-21T19:49:47.503Z,5.80
2023-02-21T19:52:19.237Z,5.30
2023-02-21T19:54:51.195Z,4.00
2023-02-21T19:57:23.581Z,6.20
2023-02-21T19:59:55.393Z,5.30
2023-02-21T20:02:31.929Z,5.00
2023-02-21T20:05:03.715Z,4.80
2023-02-21T20:07:35.553Z,6.20
2023-02-21T20:10:09.265Z,6.70
2023-02-21T20:12:41.036Z,6.60
2023-02-21T20:15:13.025Z,6.30
2023-02-21T20:17:44.943Z,6.00
2023-02-21T20:20:16.875Z,5.50
2023-02-21T20:22:48.866Z,5.90
2023-02-21T20:25:20.728Z,6.50
2023-02-21T20:27:52.595Z,5.30
2023-02-21T20:30:25.121Z,4.10
2023-02-21T20:32:58.885Z,4.60
2023-02-21T20:35:30.862Z,5.40
2023-02-21T20:38:05.547Z,6.10
2023-02-21T20:40:37.756Z,5.50
2023-02-21T20:43:10.738Z,5.40
2023-02-21T20:45:44.542Z,6.90
2023-02-21T20:48:17.981Z,6.60
2023-02-21T20:50:49.931Z,6.20
2023-02-21T20:53:21.831Z,6.10
2023-02-21T20:55:54.450Z,4.50
2023-02-21T20:58:26.419Z,6.20
2023-02-21T21:00:58.417Z,4.80
2023-02-21T21:03:30.405Z,5.70
2023-02-21T21:06:02.355Z,6.50
2023-02-21T21:08:34.217Z,6.10
2023-02-21T21:11:08.865Z,6.60
2023-02-21T21:13:40.694Z,6.70
2023-02-21T21:16:12.982Z,6.30
2023-02-21T21:18:46.921Z,6.20
2023-02-21T21:21:19.097Z,5.90
2023-02-21T21:23:51.117Z,6.10
2023-02-21T21:26:25.574Z,6.00
2023-02-21T21:28:57.444Z,6.10
2023-02-21T21:31:30.932Z,4.50
2023-02-21T21:34:02.834Z,6.20
2023-02-21T21:36:36.032Z,6.20
2023-02-21T21:39:07.847Z,6.40
2023-02-21T21:41:42.182Z,4.90
2023-02-21T21:44:14.028Z,7.10
2023-02-21T21:46:49.116Z,7.00
2023-02-21T21:49:24.588Z,7.00
2023-02-21T21:51:57.323Z,6.90
2023-02-21T21:54:31.397Z,5.90
2023-02-21T21:57:05.437Z,6.60
2023-02-21T21:59:40.890Z,7.70
2023-02-21T22:02:14.051Z,7.00
2023-02-21T22:04:48.101Z,5.60
2023-02-21T22:07:20.680Z,7.70
2023-02-21T22:09:52.533Z,6.50
2023-02-21T22:12:24.171Z,7.10
2023-02-21T22:14:57.479Z,6.70
2023-02-21T22:17:29.225Z,6.60
2023-02-21T22:20:01.175Z,6.30
2023-02-21T22:22:33.190Z,5.90
2023-02-21T22:25:10.996Z,6.80
2023-02-21T22:27:44.342Z,6.60
2023-02-21T22:30:18.479Z,6.30
2023-02-21T22:32:50.989Z,7.60
2023-02-21T22:35:23.015Z,6.10
2023-02-21T22:37:57.545Z,6.60
2023-02-21T22:40:30.437Z,6.00
2023-02-21T22:43:05.374Z,6.60
2023-02-21T22:45:38.889Z,7.80
2023-02-21T22:48:12.550Z,7.30
2023-02-21T22:50:47.565Z,7.10
2023-02-21T22:53:21.192Z,6.60
2023-02-21T22:55:53.228Z,6.60
2023-02-21T22:58:24.941Z,6.00
2023-02-21T23:01:00.055Z,7.80
2023-02-21T23:03:31.979Z,8.30
2023-02-21T23:06:06.895Z,8.20
2023-02-21T23:08:39.297Z,7.80
2023-02-21T23:11:11.054Z,7.40
2023-02-21T23:13:42.709Z,8.60
2023-02-21T23:16:21.900Z,9.40
2023-02-21T23:18:53.741Z,8.20
2023-02-21T23:21:26.226Z,7.20
2023-02-21T23:23:58.374Z,7.50
2023-02-21T23:26:30.091Z,6.90
2023-02-21T23:29:01.826Z,6.70
2023-02-21T23:31:33.817Z,7.30
2023-02-21T23:34:06.649Z,7.10
2023-02-21T23:39:12.242Z,6.40
2023-02-21T23:41:48.554Z,6.90
2023-02-21T23:44:22.556Z,7.90
2023-02-21T23:46:55.029Z,6.80
2023-02-21T23:49:26.784Z,5.80
2023-02-21T23:52:01.327Z,6.80
2023-02-21T23:54:33.181Z,6.90
2023-02-21T23:57:07.659Z,6.00
2023-02-21T23:59:40.284Z,6.90
